EPLL/LCJ METAR and TAF weather

Enter ICAO airport designator
Station Type Date Time Source
EPLL METAR 2024/04/15 10:00 UTC NOAA

EPLL 151000Z 23004KT 170V270 9999 FEW014 09/04 Q1011


Station Type Date Time Source
EPLL Decoded METAR 2024/04/15 10:00 UTC NOAA

Station name not available
Apr 15, 2024 - 06:00 AM EDT / 2024.04.15 1000 UTC
Wind: from the SW (230 degrees) at 5 MPH (4 KT) (direction variable):0
Visibility: greater than 7 mile(s):0
Sky conditions: mostly clear
Temperature: 48 F (9 C)
Dew Point: 39 F (4 C)
Relative Humidity: 70%
Pressure (altimeter): 29.85 in. Hg (1011 hPa)
ob: EPLL 151000Z 23004KT 170V270 9999 FEW014 09/04 Q1011
cycle: 10

Station Type Date Time Source
EPLL TAF 2024/04/15 06:00 UTC NOAA